East Butler, Pennsylvania
Current Conditions -  °F | °C
As of 1:55 AM on Sunday 26 Oct 2014 (Local Time) from KBTP Reporting Station
Clear Clear  
Wind Chill: 12°   Ceiling: Unl
Heat Index: 12°   Visibility: 10mi
Dew Point: -1°   Wind: 7mph
Humidity: 41%   Direction: 290°WNW
Pressure: 29.8"   Gusts: NA
Location:  40.88°N, 79.85°W
Report Text: KBTP 260555Z AUTO 29006KT 10SM CLR 12/M01 A2980 RMK AO1 10160 20120 52007
Loading
Personal Weather Stations






























Interactive Weather Map
Tropical Storm Tracking
New forecast layout! Learn more

10-Day Weather Forecast

Advertisements
Track Severe Weather on mobile